createdAt,value
2023-02-11T00:00:53.435Z,103372.47
2023-02-11T00:03:36.922Z,103364.25
2023-02-11T00:06:10.593Z,103367.66
2023-02-11T00:08:45.005Z,103368.34
2023-02-11T00:11:29.849Z,103362.59
2023-02-11T00:14:22.518Z,103365.59
2023-02-11T00:16:58.335Z,103368.41
2023-02-11T00:19:27.479Z,103373.16
2023-02-11T00:21:54.413Z,103368.47
2023-02-11T00:24:30.118Z,103360.00
2023-02-11T00:27:04.707Z,103371.63
2023-02-11T00:29:41.972Z,103372.13
2023-02-11T00:32:12.163Z,103373.53
2023-02-11T00:34:48.523Z,103361.28
2023-02-11T00:37:26.139Z,103359.31
2023-02-11T00:40:19.681Z,103372.44
2023-02-11T00:43:01.366Z,103368.78
2023-02-11T00:45:38.236Z,103377.28
2023-02-11T00:48:05.397Z,103372.38
2023-02-11T00:50:38.475Z,103380.19
2023-02-11T00:53:22.444Z,103368.91
2023-02-11T00:56:04.097Z,103373.59
2023-02-11T00:58:31.400Z,103373.06
2023-02-11T01:01:01.326Z,103376.66
2023-02-11T01:03:34.771Z,103375.38
2023-02-11T01:06:06.176Z,103380.28
2023-02-11T01:08:58.231Z,103386.47
2023-02-11T01:11:26.406Z,103381.19
2023-02-11T01:13:54.233Z,103391.81
2023-02-11T01:16:21.890Z,103383.09
2023-02-11T01:18:55.215Z,103382.19
2023-02-11T01:21:34.785Z,103381.41
2023-02-11T01:24:11.808Z,103380.31
2023-02-11T01:26:39.578Z,103375.75
2023-02-11T01:29:16.720Z,103379.50
2023-02-11T01:31:49.049Z,103376.78
2023-02-11T01:34:19.455Z,103373.34
2023-02-11T01:36:46.387Z,103356.34
2023-02-11T01:39:16.222Z,103365.28
2023-02-11T01:41:42.987Z,103370.84
2023-02-11T01:44:37.422Z,103368.34
2023-02-11T01:47:07.520Z,103370.31
2023-02-11T01:50:02.374Z,103355.66
2023-02-11T01:52:33.638Z,103350.00
2023-02-11T01:55:31.938Z,103351.59
2023-02-11T01:58:13.615Z,103341.78
2023-02-11T02:00:41.899Z,103336.78
2023-02-11T02:03:20.718Z,103337.31
2023-02-11T02:05:48.154Z,103335.97
2023-02-11T02:08:34.770Z,103330.63
2023-02-11T02:11:11.353Z,103327.75
2023-02-11T02:13:43.575Z,103322.75
2023-02-11T02:16:19.754Z,103332.16
2023-02-11T02:19:32.043Z,103324.28
2023-02-11T02:22:34.521Z,103319.09
2023-02-11T02:25:27.439Z,103314.78
2023-02-11T02:28:21.668Z,103315.66
2023-02-11T02:31:14.710Z,103313.47
2023-02-11T02:34:23.856Z,103305.75
2023-02-11T02:37:16.794Z,103293.31
2023-02-11T02:39:46.030Z,103293.88
2023-02-11T02:42:22.687Z,103287.72
2023-02-11T02:44:53.635Z,103283.16
2023-02-11T02:47:20.438Z,103286.41
2023-02-11T02:49:57.403Z,103286.81
2023-02-11T02:53:07.914Z,103285.47
2023-02-11T02:55:57.166Z,103290.66
2023-02-11T02:58:49.995Z,103296.22
2023-02-11T03:01:57.699Z,103297.09
2023-02-11T03:05:13.537Z,103294.16
2023-02-11T03:07:55.773Z,103295.59
2023-02-11T03:10:40.481Z,103285.06
2023-02-11T03:13:31.021Z,103291.59
2023-02-11T03:16:31.874Z,103290.59
2023-02-11T03:19:30.100Z,103286.59
2023-02-11T03:22:10.156Z,103293.88
2023-02-11T03:24:56.503Z,103275.75
2023-02-11T03:27:46.708Z,103273.00
2023-02-11T03:30:21.478Z,103280.50
2023-02-11T03:33:24.175Z,103275.94
2023-02-11T03:36:17.113Z,103279.78
2023-02-11T03:39:01.155Z,103274.97
2023-02-11T03:41:38.895Z,103278.69
2023-02-11T03:44:07.483Z,103273.63
2023-02-11T03:46:39.663Z,103272.47
2023-02-11T03:49:20.634Z,103259.31
2023-02-11T03:51:51.438Z,103265.75
2023-02-11T03:54:22.569Z,103264.41
2023-02-11T03:56:55.321Z,103263.69
2023-02-11T03:59:52.117Z,103258.78
2023-02-11T04:02:24.505Z,103261.22
2023-02-11T04:04:51.272Z,103259.59
2023-02-11T04:07:27.311Z,103258.63
2023-02-11T04:09:54.413Z,103257.88
2023-02-11T04:12:21.633Z,103256.38
2023-02-11T04:14:48.817Z,103265.31
2023-02-11T04:17:23.040Z,103252.06
2023-02-11T04:20:04.400Z,103251.53
2023-02-11T04:22:31.464Z,103252.25
2023-02-11T04:24:58.368Z,103251.38
2023-02-11T04:27:25.915Z,103254.03
2023-02-11T04:30:05.062Z,103254.03
2023-02-11T04:32:42.844Z,103240.50
2023-02-11T04:35:11.083Z,103250.47
2023-02-11T04:37:37.709Z,103240.66
2023-02-11T04:40:05.072Z,103244.41
2023-02-11T04:42:32.528Z,103245.84
2023-02-11T04:45:03.098Z,103247.78
2023-02-11T04:47:44.059Z,103236.63
2023-02-11T04:50:11.557Z,103244.50
2023-02-11T04:52:41.486Z,103240.66
2023-02-11T04:55:11.777Z,103242.84
2023-02-11T04:57:49.987Z,103231.06
2023-02-11T05:00:26.335Z,103229.97
2023-02-11T05:03:01.478Z,103226.22
2023-02-11T05:05:31.219Z,103223.47
2023-02-11T05:07:58.096Z,103219.53
2023-02-11T05:10:24.922Z,103227.16
2023-02-11T05:12:56.075Z,103232.00
2023-02-11T05:15:27.002Z,103228.41
2023-02-11T05:17:54.284Z,103220.03
2023-02-11T05:20:26.380Z,103230.78
2023-02-11T05:22:56.599Z,103228.03
2023-02-11T05:25:26.783Z,103234.69
2023-02-11T05:27:53.667Z,103236.16
2023-02-11T05:30:29.266Z,103233.88
2023-02-11T05:32:56.147Z,103227.25
2023-02-11T05:35:25.464Z,103232.19
2023-02-11T05:38:03.800Z,103231.38
2023-02-11T05:40:52.095Z,103234.25
2023-02-11T05:43:39.944Z,103229.06
2023-02-11T05:46:18.673Z,103229.94
2023-02-11T05:48:48.444Z,103238.50
2023-02-11T05:51:15.220Z,103246.56
2023-02-11T05:53:42.048Z,103244.97
2023-02-11T05:56:25.346Z,103251.91
2023-02-11T05:58:57.039Z,103249.50
2023-02-11T06:01:23.761Z,103247.44
2023-02-11T06:03:51.594Z,103245.56
2023-02-11T06:06:29.941Z,103241.19
2023-02-11T06:08:57.817Z,103243.31
2023-02-11T06:11:24.811Z,103244.44
2023-02-11T06:13:59.099Z,103235.81
2023-02-11T06:16:38.740Z,103244.25
2023-02-11T06:19:05.469Z,103241.38
2023-02-11T06:21:43.313Z,103235.56
2023-02-11T06:24:38.503Z,103243.09
2023-02-11T06:27:06.114Z,103243.31
2023-02-11T06:29:33.475Z,103238.31
2023-02-11T06:32:04.973Z,103239.03
2023-02-11T06:34:31.850Z,103236.63
2023-02-11T06:36:58.740Z,103232.59
2023-02-11T06:39:29.955Z,103236.84
2023-02-11T06:42:06.424Z,103238.50
2023-02-11T06:44:34.715Z,103233.31
2023-02-11T06:47:07.088Z,103231.91
2023-02-11T06:49:34.044Z,103229.84
2023-02-11T06:52:07.304Z,103235.66
2023-02-11T06:54:34.786Z,103233.69
2023-02-11T06:57:02.109Z,103248.34
2023-02-11T06:59:36.199Z,103232.25
2023-02-11T07:02:06.162Z,103231.00
2023-02-11T07:04:38.411Z,103228.69
2023-02-11T07:07:16.328Z,103232.56
2023-02-11T07:09:43.464Z,103233.13
2023-02-11T07:12:16.606Z,103239.34
2023-02-11T07:14:49.389Z,103233.47
2023-02-11T07:17:35.214Z,103236.44
2023-02-11T07:20:12.745Z,103238.75
2023-02-11T07:22:45.290Z,103241.44
2023-02-11T07:25:22.410Z,103250.44
2023-02-11T07:27:50.435Z,103242.25
2023-02-11T07:30:18.587Z,103243.59
2023-02-11T07:32:49.219Z,103230.47
2023-02-11T07:35:17.180Z,103239.88
2023-02-11T07:37:44.197Z,103237.03
2023-02-11T07:40:12.879Z,103235.56
2023-02-11T07:42:48.222Z,103231.41
2023-02-11T07:45:17.929Z,103236.03
2023-02-11T07:47:48.950Z,103232.09
2023-02-11T07:50:18.616Z,103237.16
2023-02-11T07:52:45.445Z,103236.91
2023-02-11T07:55:12.388Z,103225.91
2023-02-11T07:57:42.034Z,103227.84
2023-02-11T08:00:11.680Z,103235.78
2023-02-11T08:02:40.778Z,103237.22
2023-02-11T08:05:07.768Z,103232.72
2023-02-11T08:07:37.638Z,103243.16
2023-02-11T08:10:09.089Z,103247.50
2023-02-11T08:12:36.046Z,103258.63
2023-02-11T08:15:02.923Z,103265.22
2023-02-11T08:20:48.636Z,103269.59
2023-02-11T08:23:29.278Z,103265.34
2023-02-11T08:26:04.237Z,103269.81
2023-02-11T08:28:31.516Z,103267.00
2023-02-11T08:31:03.796Z,103269.19
2023-02-11T08:33:31.317Z,103273.53
2023-02-11T08:36:07.377Z,103272.19
2023-02-11T08:38:38.678Z,103275.22
2023-02-11T08:41:18.183Z,103277.34
2023-02-11T08:43:49.646Z,103284.41
2023-02-11T08:46:23.003Z,103278.09
2023-02-11T08:48:56.864Z,103281.47
2023-02-11T08:51:29.518Z,103285.09
2023-02-11T08:56:43.203Z,103280.16
2023-02-11T08:59:13.910Z,103287.84
2023-02-11T09:01:58.617Z,103277.88
2023-02-11T09:04:41.119Z,103264.72
2023-02-11T09:07:12.241Z,103275.09
2023-02-11T09:12:29.478Z,103276.16
2023-02-11T09:15:08.314Z,103274.56
2023-02-11T09:17:35.224Z,103270.06
2023-02-11T09:20:05.125Z,103271.22
2023-02-11T09:22:33.177Z,103266.97
2023-02-11T09:25:03.325Z,103266.50
2023-02-11T09:27:30.139Z,103260.56
2023-02-11T09:30:06.655Z,103262.41
2023-02-11T09:32:52.404Z,103258.69
2023-02-11T09:35:19.458Z,103257.50
2023-02-11T09:37:53.400Z,103260.84
2023-02-11T09:40:23.030Z,103260.19
2023-02-11T09:43:14.582Z,103263.91
2023-02-11T09:45:52.988Z,103261.16
2023-02-11T09:48:31.600Z,103266.47
2023-02-11T09:51:06.960Z,103257.72
2023-02-11T09:53:47.861Z,103249.59
2023-02-11T09:56:24.864Z,103252.91
2023-02-11T09:58:52.098Z,103249.31
2023-02-11T10:01:49.298Z,103239.22
2023-02-11T10:04:26.892Z,103242.97
2023-02-11T10:07:03.638Z,103245.81
2023-02-11T10:10:08.130Z,103244.78
2023-02-11T10:12:53.556Z,103236.03
2023-02-11T10:15:53.204Z,103227.59
2023-02-11T10:18:57.927Z,103225.84
2023-02-11T10:22:02.789Z,103230.06
2023-02-11T10:24:35.331Z,103229.00
2023-02-11T10:27:33.284Z,103215.38
2023-02-11T10:30:19.359Z,103220.63
2023-02-11T10:32:51.608Z,103215.78
2023-02-11T10:38:16.502Z,103205.66
2023-02-11T10:40:46.211Z,103206.59
2023-02-11T10:43:29.004Z,103201.22
2023-02-11T10:46:04.773Z,103201.44
2023-02-11T10:48:54.325Z,103196.50
2023-02-11T10:51:51.849Z,103196.72
2023-02-11T10:54:37.609Z,103197.09
2023-02-11T10:57:07.706Z,103193.50
2023-02-11T10:59:40.514Z,103191.84
2023-02-11T11:02:35.317Z,103195.63
2023-02-11T11:05:21.406Z,103182.59
2023-02-11T11:08:13.492Z,103182.47
2023-02-11T11:11:04.042Z,103173.84
2023-02-11T11:13:37.093Z,103169.56
2023-02-11T11:16:30.737Z,103163.59
2023-02-11T11:19:08.522Z,103155.28
2023-02-11T11:21:42.923Z,103154.63
2023-02-11T11:24:31.476Z,103149.50
2023-02-11T11:27:04.205Z,103157.72
2023-02-11T11:29:55.552Z,103150.53
2023-02-11T11:32:33.875Z,103154.09
2023-02-11T11:38:33.353Z,103149.34
2023-02-11T11:41:23.447Z,103144.00
2023-02-11T11:44:30.716Z,103144.63
2023-02-11T11:47:27.445Z,103137.84
2023-02-11T11:50:02.257Z,103135.16
2023-02-11T11:52:54.454Z,103131.22
2023-02-11T11:55:33.051Z,103129.41
2023-02-11T11:58:02.731Z,103123.28
2023-02-11T12:00:43.090Z,103123.03
2023-02-11T12:03:31.194Z,103111.78
2023-02-11T12:06:25.328Z,103112.16
2023-02-11T12:08:58.567Z,103112.47
2023-02-11T12:11:47.638Z,103112.78
2023-02-11T12:14:39.493Z,103100.66
2023-02-11T12:17:50.948Z,103093.03
2023-02-11T12:20:33.275Z,103093.84
2023-02-11T12:23:18.944Z,103076.28
2023-02-11T12:25:58.470Z,103074.34
2023-02-11T12:29:10.477Z,103080.03
2023-02-11T12:32:24.875Z,103075.66
2023-02-11T12:35:19.093Z,103057.78
2023-02-11T12:38:08.544Z,103060.78
2023-02-11T12:41:02.206Z,103050.31
2023-02-11T12:43:46.191Z,103046.19
2023-02-11T12:46:39.109Z,103042.50
2023-02-11T12:49:47.419Z,103045.63
2023-02-11T12:52:47.925Z,103033.31
2023-02-11T12:55:57.292Z,103030.75
2023-02-11T12:58:45.723Z,103034.97
2023-02-11T13:01:46.532Z,103037.69
2023-02-11T13:04:56.219Z,103029.41
2023-02-11T13:07:56.776Z,103028.38
2023-02-11T13:10:37.820Z,103019.81
2023-02-11T13:13:19.462Z,103013.91
2023-02-11T13:15:58.287Z,103003.38
2023-02-11T13:18:56.028Z,102996.53
2023-02-11T13:21:54.683Z,103000.66
2023-02-11T13:24:51.986Z,103000.84
2023-02-11T13:27:38.751Z,102996.59
2023-02-11T13:30:45.507Z,102992.38
2023-02-11T13:33:35.786Z,102989.84
2023-02-11T13:36:23.724Z,102983.75
2023-02-11T13:39:12.665Z,102983.09
2023-02-11T13:41:52.919Z,102984.84
2023-02-11T13:44:28.513Z,102979.50
2023-02-11T13:47:17.997Z,102983.91
2023-02-11T13:50:00.718Z,102982.88
2023-02-11T13:52:31.909Z,102969.50
2023-02-11T13:55:25.518Z,102976.56
2023-02-11T13:58:36.125Z,102974.09
2023-02-11T14:01:41.626Z,102967.03
2023-02-11T14:04:45.495Z,102969.44
2023-02-11T14:07:48.928Z,102970.13
2023-02-11T14:10:45.802Z,102971.88
2023-02-11T14:13:34.874Z,102963.03
2023-02-11T14:16:36.336Z,102966.53
2023-02-11T14:19:06.941Z,102973.47
2023-02-11T14:21:41.854Z,102964.94
2023-02-11T14:24:13.268Z,102966.88
2023-02-11T14:27:23.640Z,102972.47
2023-02-11T14:30:24.610Z,102970.78
2023-02-11T14:33:44.143Z,102968.16
2023-02-11T14:36:40.864Z,102968.91
2023-02-11T14:39:31.620Z,102962.69
2023-02-11T14:42:07.588Z,102967.91
2023-02-11T14:44:37.732Z,102966.88
2023-02-11T14:47:19.179Z,102954.66
2023-02-11T14:49:47.729Z,102958.00
2023-02-11T14:52:41.808Z,102954.56
2023-02-11T14:55:34.472Z,102945.84
2023-02-11T14:58:27.428Z,102944.94
2023-02-11T15:01:06.536Z,102943.13
2023-02-11T15:03:41.661Z,102951.78
2023-02-11T15:06:31.394Z,102958.25
2023-02-11T15:09:13.492Z,102951.97
2023-02-11T15:11:43.299Z,102949.41
2023-02-11T15:14:19.190Z,102945.84
2023-02-11T15:16:47.828Z,102952.69
2023-02-11T15:19:28.631Z,102945.91
2023-02-11T15:21:59.750Z,102941.47
2023-02-11T15:24:29.817Z,102937.97
2023-02-11T15:27:21.073Z,102926.53
2023-02-11T15:29:56.364Z,102928.00
2023-02-11T15:32:36.887Z,102922.75
2023-02-11T15:35:10.114Z,102932.78
2023-02-11T15:37:37.137Z,102933.06
2023-02-11T15:40:23.003Z,102931.22
2023-02-11T15:42:58.342Z,102927.75
2023-02-11T15:45:35.431Z,102923.19
2023-02-11T15:48:12.934Z,102919.59
2023-02-11T15:50:42.294Z,102931.00
2023-02-11T15:53:27.399Z,102927.94
2023-02-11T15:56:22.248Z,102930.78
2023-02-11T15:59:19.321Z,102927.22
2023-02-11T16:01:48.595Z,102922.78
2023-02-11T16:04:22.079Z,102921.72
2023-02-11T16:06:51.155Z,102911.78
2023-02-11T16:09:41.431Z,102919.84
2023-02-11T16:15:47.030Z,102922.75
2023-02-11T16:18:28.461Z,102915.06
2023-02-11T16:21:02.670Z,102908.81
2023-02-11T16:23:34.847Z,102914.31
2023-02-11T16:26:12.652Z,102925.38
2023-02-11T16:28:46.691Z,102917.56
2023-02-11T16:31:13.869Z,102916.56
2023-02-11T16:33:43.193Z,102913.56
2023-02-11T16:36:18.195Z,102918.22
2023-02-11T16:38:45.093Z,102922.09
2023-02-11T16:41:20.579Z,102928.13
2023-02-11T16:43:53.162Z,102925.13
2023-02-11T16:46:20.279Z,102922.22
2023-02-11T16:48:47.153Z,102915.00
2023-02-11T16:51:18.817Z,102919.78
2023-02-11T16:53:45.989Z,102918.91
2023-02-11T16:56:19.476Z,102916.38
2023-02-11T16:59:03.382Z,102910.88
2023-02-11T17:01:36.489Z,102919.63
2023-02-11T17:04:04.711Z,102918.66
2023-02-11T17:06:32.005Z,102921.81
2023-02-11T17:09:00.482Z,102917.31
2023-02-11T17:11:29.775Z,102921.66
2023-02-11T17:14:05.326Z,102916.44
2023-02-11T17:16:36.330Z,102923.00
2023-02-11T17:19:07.132Z,102919.44
2023-02-11T17:21:34.173Z,102918.03
2023-02-11T17:24:01.547Z,102915.16
2023-02-11T17:29:12.155Z,102920.84
2023-02-11T17:31:47.051Z,102918.97
2023-02-11T17:34:22.971Z,102925.19
2023-02-11T17:37:00.356Z,102926.94
2023-02-11T17:39:27.904Z,102927.22
2023-02-11T17:41:54.794Z,102927.25
2023-02-11T17:44:22.016Z,102930.81
2023-02-11T17:47:03.150Z,102925.16
2023-02-11T17:49:34.030Z,102937.94
2023-02-11T17:52:01.402Z,102937.03
2023-02-11T17:54:33.384Z,102930.81
2023-02-11T17:57:00.345Z,102934.53
2023-02-11T17:59:31.887Z,102942.13
2023-02-11T18:02:05.534Z,102941.66
2023-02-11T18:04:34.247Z,102935.47
2023-02-11T18:07:20.318Z,102941.16
2023-02-11T18:09:49.860Z,102934.72
2023-02-11T18:12:31.395Z,102936.69
2023-02-11T18:14:58.417Z,102927.81
2023-02-11T18:17:25.653Z,102926.78
2023-02-11T18:20:00.744Z,102935.81
2023-02-11T18:22:38.736Z,102932.56
2023-02-11T18:25:13.350Z,102945.72
2023-02-11T18:27:51.822Z,102945.91
2023-02-11T18:30:48.459Z,102943.50
2023-02-11T18:33:28.213Z,102936.84
2023-02-11T18:35:57.743Z,102935.47
2023-02-11T18:38:44.565Z,102937.41
2023-02-11T18:41:36.639Z,102933.75
2023-02-11T18:44:28.748Z,102929.19
2023-02-11T18:47:07.813Z,102926.56
2023-02-11T18:49:43.536Z,102935.34
2023-02-11T18:52:21.489Z,102933.91
2023-02-11T18:54:52.483Z,102933.16
2023-02-11T18:57:31.272Z,102938.66
2023-02-11T19:00:08.061Z,102935.34
2023-02-11T19:02:49.151Z,102929.75
2023-02-11T19:05:16.734Z,102938.19
2023-02-11T19:07:47.156Z,102931.41
2023-02-11T19:10:14.303Z,102932.63
2023-02-11T19:12:42.188Z,102935.97
2023-02-11T19:15:09.288Z,102934.91
2023-02-11T19:17:41.484Z,102943.63
2023-02-11T19:20:09.219Z,102938.00
2023-02-11T19:22:41.829Z,102937.25
2023-02-11T19:25:08.636Z,102939.16
2023-02-11T19:27:53.343Z,102938.03
2023-02-11T19:30:20.831Z,102932.50
2023-02-11T19:32:53.345Z,102931.06
2023-02-11T19:35:22.626Z,102925.66
2023-02-11T19:37:54.839Z,102929.41
2023-02-11T19:40:21.695Z,102926.09
2023-02-11T19:42:51.416Z,102933.09
2023-02-11T19:45:20.580Z,102924.81
2023-02-11T19:47:47.440Z,102926.31
2023-02-11T19:50:14.423Z,102931.13
2023-02-11T19:52:41.291Z,102926.63
2023-02-11T19:55:08.732Z,102935.47
2023-02-11T19:57:59.693Z,102929.72
2023-02-11T20:00:26.651Z,102937.41
2023-02-11T20:02:53.581Z,102942.75
2023-02-11T20:05:20.424Z,102942.41
2023-02-11T20:07:59.661Z,102945.41
2023-02-11T20:10:33.614Z,102941.28
2023-02-11T20:13:06.625Z,102944.34
2023-02-11T20:15:34.612Z,102933.47
2023-02-11T20:18:02.078Z,102947.03
2023-02-11T20:20:28.881Z,102940.75
2023-02-11T20:22:55.765Z,102938.28
2023-02-11T20:25:22.725Z,102934.19
2023-02-11T20:27:51.254Z,102941.91
2023-02-11T20:30:28.555Z,102951.75
2023-02-11T20:33:01.762Z,102964.59
2023-02-11T20:35:28.723Z,102955.66
2023-02-11T20:37:56.288Z,102950.09
2023-02-11T20:40:28.260Z,102952.72
2023-02-11T20:42:57.003Z,102958.91
2023-02-11T20:45:25.001Z,102952.09
2023-02-11T20:48:01.901Z,102950.47
2023-02-11T20:50:30.018Z,102948.03
2023-02-11T20:53:10.493Z,102938.84
2023-02-11T20:55:40.574Z,102938.94
2023-02-11T20:58:08.369Z,102936.75
2023-02-11T21:00:38.436Z,102935.41
2023-02-11T21:03:10.927Z,102939.50
2023-02-11T21:05:39.364Z,102926.13
2023-02-11T21:08:08.081Z,102931.22
2023-02-11T21:10:38.863Z,102926.69
2023-02-11T21:13:05.953Z,102926.66
2023-02-11T21:15:32.902Z,102928.31
2023-02-11T21:18:02.964Z,102924.50
2023-02-11T21:20:40.388Z,102923.84
2023-02-11T21:23:12.268Z,102924.56
2023-02-11T21:25:40.475Z,102927.63
2023-02-11T21:28:13.867Z,102928.88
2023-02-11T21:30:44.938Z,102921.13
2023-02-11T21:33:13.230Z,102921.13
2023-02-11T21:35:43.227Z,102929.78
2023-02-11T21:38:18.708Z,102925.47
2023-02-11T21:40:46.373Z,102928.72
2023-02-11T21:43:34.736Z,102928.84
2023-02-11T21:46:41.290Z,102925.50
2023-02-11T21:49:12.701Z,102931.28
2023-02-11T21:51:48.780Z,102937.34
2023-02-11T21:54:19.184Z,102930.00
2023-02-11T21:56:55.173Z,102937.34
2023-02-11T21:59:45.738Z,102946.66
2023-02-11T22:02:24.341Z,102945.75
2023-02-11T22:04:57.829Z,102946.00
2023-02-11T22:07:31.029Z,102943.72
2023-02-11T22:10:01.046Z,102944.47
2023-02-11T22:12:37.886Z,102942.19
2023-02-11T22:15:05.902Z,102941.56
2023-02-11T22:17:34.687Z,102941.00
2023-02-11T22:20:12.448Z,102943.69
2023-02-11T22:22:49.976Z,102940.31
2023-02-11T22:25:29.198Z,102932.25
2023-02-11T22:27:57.078Z,102931.47
2023-02-11T22:30:52.689Z,102941.63
2023-02-11T22:33:26.011Z,102935.03
2023-02-11T22:36:09.001Z,102933.31
2023-02-11T22:38:40.136Z,102937.84
2023-02-11T22:41:11.364Z,102940.50
2023-02-11T22:43:38.988Z,102931.44
2023-02-11T22:46:15.674Z,102933.44
2023-02-11T22:49:17.690Z,102922.22
2023-02-11T22:51:49.792Z,102926.03
2023-02-11T22:54:40.081Z,102920.41
2023-02-11T22:57:06.921Z,102924.44
2023-02-11T22:59:39.803Z,102920.66
2023-02-11T23:02:10.077Z,102922.09
2023-02-11T23:04:37.261Z,102918.69
2023-02-11T23:07:09.329Z,102916.34
2023-02-11T23:09:45.189Z,102926.63
2023-02-11T23:12:15.182Z,102921.81
2023-02-11T23:14:45.046Z,102920.66
2023-02-11T23:17:12.033Z,102918.38
2023-02-11T23:19:48.591Z,102907.81
2023-02-11T23:22:23.837Z,102902.84
2023-02-11T23:24:50.868Z,102911.16
2023-02-11T23:27:29.506Z,102909.09
2023-02-11T23:32:53.322Z,102922.81
2023-02-11T23:35:44.958Z,102918.66
2023-02-11T23:38:19.536Z,102922.66
2023-02-11T23:40:46.616Z,102909.66
2023-02-11T23:43:17.944Z,102908.19
2023-02-11T23:48:31.145Z,102900.84
2023-02-11T23:51:03.498Z,102896.69
2023-02-11T23:53:45.385Z,102899.56
2023-02-11T23:56:27.671Z,102903.13
2023-02-11T23:58:57.465Z,102906.06
